Airfield :
LOGIN :

Register | Disclaimer

   EN    FR    IT 

 










Legend :    VFR   Marginal VFR   IFR   Intensive IFR   Very Intensive IFR
Visi :
Ceiling :
>= 8 km
>= 3000ft
5 to 8 km
1000 to 3000 ft
1500m to 5 km
500 to 1000 ft
800 to 1500m
200 to 500 ft
< 800m
< 200 ft
Symbols :   Thunderstorms  Fog  Heavy snow  Heavy precipitations  Wind > 20 kt
SIGMETs :     Misc.  Thunderstorms  Icing  Turbulence  Mountain Waves  Volcanic Ashes






- Airport Elevation : 741 ft
- IATA code : PED


LKPD - Pardubice AB

CURRENT METAR :
  • 241200Z 26014KT 9999 SCT033 BKN090 08/M02 Q1020 RMK BLACK

EXPIRED METARs :
  • 241130Z 28011KT 9999 BKN033 07/M02 Q1021 RMK BLACK
  • 241100Z 28012KT 250V320 9999 SCT033 BKN080 07/M02 Q1021 RMK BLACK
  • 241030Z 28015KT 9999 BKN034 06/M03 Q1021 RMK BLACK
  • 241000Z 29014KT 9999 BKN034 05/M03 Q1021 RMK BLACK
  • 240930Z 29012KT 9999 BKN034 05/M02 Q1021 RMK BLACK

TAF TAF LKPD
Valid from the 23 at 18:00 until the 24 at 18:00 UTC


231700Z 2318/2418 27020G38KT 9999 BKN035
TEMPO 2318/2403 28030G54KT 4000 RA BKN020
BECMG 2400/2402 CAVOK
BECMG 2406/2408 24016KT



MET'MAP, your aeronautical weather chart ! - Copyright ORBIFLY December 2007 - Disclaimer

ORBIFLY MET'MAP TEAM :

Programming & Development : Alexandra Zaïnal
Concept & original design : Baudouin d'Aumeries
Assistance for programming : Marc-Olivier Méhu
Technical & hardware support : Manuel Goepfert

Contact : metmap@orbifly.com




SOURCES & CREDITS :

   NOAA